Time,TemperatureF,DewpointF,PressureIn,WindDirection,WindDirectionDegrees,WindSpeedMPH,WindSpeedGustMPH,Humidity,HourlyPrecipIn,Conditions,Clouds,dailyrainin,SoftwareType,DateUTC
2013-07-09 00:02:00,70.7,40.9,30.13,North,0,0.0,0.0,34,0.00,,,0.00,WUHU216HW,2013-07-09 06:02:00,
2013-07-09 00:07:00,70.4,41.2,30.14,North,0,0.0,0.0,35,0.00,,,0.00,WUHU216HW,2013-07-09 06:07:00,
2013-07-09 00:12:00,70.4,41.2,30.14,North,0,0.0,0.0,35,0.00,,,0.00,WUHU216HW,2013-07-09 06:12:00,
2013-07-09 00:17:00,70.4,42.0,30.14,North,0,0.0,0.0,36,0.00,,,0.00,WUHU216HW,2013-07-09 06:17:00,
2013-07-09 00:22:00,70.6,41.4,30.14,North,0,0.0,0.0,35,0.00,,,0.00,WUHU216HW,2013-07-09 06:22:00,
2013-07-09 00:27:00,70.6,41.4,30.14,North,0,0.0,0.0,35,0.00,,,0.00,WUHU216HW,2013-07-09 06:27:00,
2013-07-09 00:32:00,70.6,41.4,30.14,North,0,0.0,0.0,35,0.00,,,0.00,WUHU216HW,2013-07-09 06:32:00,
2013-07-09 00:37:00,70.2,41.1,30.15,North,0,0.0,0.0,35,0.00,,,0.00,WUHU216HW,2013-07-09 06:37:00,
2013-07-09 00:42:00,69.8,41.5,30.15,North,0,0.0,0.0,36,0.00,,,0.00,WUHU216HW,2013-07-09 06:42:00,
2013-07-09 00:47:00,69.5,42.0,30.15,North,0,0.0,0.0,37,0.00,,,0.00,WUHU216HW,2013-07-09 06:47:00,
2013-07-09 00:52:00,69.1,41.6,30.15,North,0,0.0,0.0,37,0.00,,,0.00,WUHU216HW,2013-07-09 06:52:00,
2013-07-09 00:57:00,68.8,41.3,30.15,North,0,0.0,0.0,37,0.00,,,0.00,WUHU216HW,2013-07-09 06:57:00,
2013-07-09 01:02:00,68.2,40.8,30.15,North,0,0.0,0.0,37,0.00,,,0.00,WUHU216HW,2013-07-09 07:02:00,
2013-07-09 01:05:00,67.9,41.2,30.15,North,0,0.0,0.0,38,0.00,,,0.00,WUHU216HW,2013-07-09 07:05:00,
2013-07-09 01:07:00,67.9,41.2,30.15,North,0,0.0,0.0,38,0.00,,,0.00,WUHU216HW,2013-07-09 07:07:00,
2013-07-09 01:12:00,67.9,41.2,30.15,North,0,0.0,0.0,38,0.00,,,0.00,WUHU216HW,2013-07-09 07:12:00,
2013-07-09 01:20:00,67.9,41.2,30.15,North,0,0.0,0.0,38,0.00,,,0.00,WUHU216HW,2013-07-09 07:20:00,
2013-07-09 01:24:00,65.5,39.2,30.15,North,0,0.0,0.0,38,0.00,,,0.00,WUHU216HW,2013-07-09 07:24:00,
2013-07-09 01:29:00,64.4,38.2,30.16,North,0,0.0,0.0,38,0.00,,,0.00,WUHU216HW,2013-07-09 07:29:00,
2013-07-09 01:35:00,63.5,38.1,30.16,North,0,0.0,0.0,39,0.00,,,0.00,WUHU216HW,2013-07-09 07:35:00,
2013-07-09 01:40:00,62.8,38.2,30.16,North,0,0.0,0.0,40,0.00,,,0.00,WUHU216HW,2013-07-09 07:40:00,
2013-07-09 01:45:00,62.3,38.3,30.16,North,0,0.0,0.0,41,0.00,,,0.00,WUHU216HW,2013-07-09 07:45:00,
2013-07-09 01:52:00,61.6,37.6,30.16,North,0,0.0,0.0,41,0.00,,,0.00,WUHU216HW,2013-07-09 07:52:00,
2013-07-09 01:57:00,61.0,37.7,30.17,North,0,0.0,0.0,42,0.00,,,0.00,WUHU216HW,2013-07-09 07:57:00,
2013-07-09 02:02:00,60.7,37.9,30.17,North,0,0.0,0.0,43,0.00,,,0.00,WUHU216HW,2013-07-09 08:02:00,
2013-07-09 02:07:00,60.3,37.6,30.17,North,0,0.0,0.0,43,0.00,,,0.00,WUHU216HW,2013-07-09 08:07:00,
2013-07-09 02:12:00,60.1,37.4,30.17,North,0,0.0,0.0,43,0.00,,,0.00,WUHU216HW,2013-07-09 08:12:00,
2013-07-09 02:17:00,59.8,37.7,30.17,North,0,0.0,0.0,44,0.00,,,0.00,WUHU216HW,2013-07-09 08:17:00,
2013-07-09 02:22:00,59.4,37.4,30.17,North,0,0.0,0.0,44,0.00,,,0.00,WUHU216HW,2013-07-09 08:22:00,
2013-07-09 02:27:00,59.2,37.2,30.17,North,0,0.0,0.0,44,0.00,,,0.00,WUHU216HW,2013-07-09 08:27:00,
2013-07-09 02:32:00,58.9,37.4,30.17,North,0,0.0,0.0,45,0.00,,,0.00,WUHU216HW,2013-07-09 08:32:00,
2013-07-09 02:37:00,58.7,37.3,30.17,North,0,0.0,0.0,45,0.00,,,0.00,WUHU216HW,2013-07-09 08:37:00,
2013-07-09 02:42:00,58.3,37.5,30.18,North,0,0.0,0.0,46,0.00,,,0.00,WUHU216HW,2013-07-09 08:42:00,
2013-07-09 02:47:00,58.1,37.4,30.18,North,0,0.0,0.0,46,0.00,,,0.00,WUHU216HW,2013-07-09 08:47:00,
2013-07-09 02:52:00,58.0,37.3,30.18,North,0,0.0,0.0,46,0.00,,,0.00,WUHU216HW,2013-07-09 08:52:00,
2013-07-09 02:57:00,57.6,37.4,30.18,North,0,0.0,0.0,47,0.00,,,0.00,WUHU216HW,2013-07-09 08:57:00,
2013-07-09 03:02:00,57.4,37.4,30.18,North,0,0.0,0.0,47,0.00,,,0.00,WUHU216HW,2013-07-09 09:02:00,
2013-07-09 03:07:00,57.2,37.7,30.18,North,0,0.0,0.0,48,0.00,,,0.00,WUHU216HW,2013-07-09 09:07:00,
2013-07-09 03:12:00,57.1,37.5,30.18,North,0,0.0,0.0,48,0.00,,,0.00,WUHU216HW,2013-07-09 09:12:00,
2013-07-09 03:17:00,56.7,37.2,30.19,North,0,0.0,0.0,48,0.00,,,0.00,WUHU216HW,2013-07-09 09:17:00,
2013-07-09 03:22:00,56.7,37.8,30.19,North,0,0.0,0.0,49,0.00,,,0.00,WUHU216HW,2013-07-09 09:22:00,
2013-07-09 03:27:00,56.7,38.3,30.19,North,0,0.0,0.0,50,0.00,,,0.00,WUHU216HW,2013-07-09 09:27:00,
2013-07-09 03:32:00,56.5,37.6,30.19,North,0,0.0,0.0,49,0.00,,,0.00,WUHU216HW,2013-07-09 09:32:00,
2013-07-09 03:37:00,56.5,37.6,30.19,North,0,0.0,0.0,49,0.00,,,0.00,WUHU216HW,2013-07-09 09:37:00,
2013-07-09 03:42:00,56.2,38.3,30.19,North,0,0.0,0.0,51,0.00,,,0.00,WUHU216HW,2013-07-09 09:42:00,
2013-07-09 03:47:00,56.0,39.1,30.19,North,0,0.0,0.0,53,0.00,,,0.00,WUHU216HW,2013-07-09 09:47:00,
2013-07-09 03:52:00,56.0,38.1,30.19,North,0,0.0,0.0,51,0.00,,,0.00,WUHU216HW,2013-07-09 09:52:00,
2013-07-09 03:57:00,55.8,37.9,30.20,North,0,0.0,0.0,51,0.00,,,0.00,WUHU216HW,2013-07-09 09:57:00,
2013-07-09 04:02:00,55.4,37.1,30.20,North,0,0.0,0.0,50,0.00,,,0.00,WUHU216HW,2013-07-09 10:02:00,
2013-07-09 04:07:00,55.1,37.3,30.20,North,0,0.0,0.0,51,0.00,,,0.00,WUHU216HW,2013-07-09 10:07:00,
2013-07-09 04:12:00,54.5,37.2,30.20,North,0,0.0,0.0,52,0.00,,,0.00,WUHU216HW,2013-07-09 10:12:00,
2013-07-09 04:17:00,54.4,37.1,30.20,North,0,0.0,0.0,52,0.00,,,0.00,WUHU216HW,2013-07-09 10:17:00,
2013-07-09 04:22:00,54.2,37.4,30.20,North,0,0.0,0.0,53,0.00,,,0.00,WUHU216HW,2013-07-09 10:22:00,
2013-07-09 04:27:00,54.0,37.2,30.20,North,0,0.0,0.0,53,0.00,,,0.00,WUHU216HW,2013-07-09 10:27:00,
2013-07-09 04:32:00,53.8,37.5,30.20,North,0,0.0,0.0,54,0.00,,,0.00,WUHU216HW,2013-07-09 10:32:00,
2013-07-09 04:37:00,53.6,37.8,30.21,North,0,0.0,0.0,55,0.00,,,0.00,WUHU216HW,2013-07-09 10:37:00,
2013-07-09 04:42:00,53.6,37.8,30.20,North,0,0.0,0.0,55,0.00,,,0.00,WUHU216HW,2013-07-09 10:42:00,
2013-07-09 04:47:00,53.3,37.4,30.20,North,0,0.0,0.0,55,0.00,,,0.00,WUHU216HW,2013-07-09 10:47:00,
2013-07-09 04:52:00,53.1,37.3,30.20,North,0,0.0,0.0,55,0.00,,,0.00,WUHU216HW,2013-07-09 10:52:00,
2013-07-09 04:57:00,52.9,37.6,30.20,North,0,0.0,0.0,56,0.00,,,0.00,WUHU216HW,2013-07-09 10:57:00,
2013-07-09 05:02:00,52.9,38.1,30.20,North,0,0.0,0.0,57,0.00,,,0.00,WUHU216HW,2013-07-09 11:02:00,
2013-07-09 05:07:00,52.7,37.9,30.20,North,0,0.0,0.0,57,0.00,,,0.00,WUHU216HW,2013-07-09 11:07:00,
2013-07-09 05:12:00,52.6,37.7,30.20,North,0,0.0,0.0,57,0.00,,,0.00,WUHU216HW,2013-07-09 11:12:00,
2013-07-09 05:17:00,52.4,37.5,30.20,North,0,0.0,0.0,57,0.00,,,0.00,WUHU216HW,2013-07-09 11:17:00,
2013-07-09 05:22:00,52.2,37.8,30.20,North,0,0.0,0.0,58,0.00,,,0.00,WUHU216HW,2013-07-09 11:22:00,
2013-07-09 05:27:00,52.0,37.6,30.20,North,0,0.0,0.0,58,0.00,,,0.00,WUHU216HW,2013-07-09 11:27:00,
2013-07-09 05:32:00,51.8,37.4,30.20,North,0,0.0,0.0,58,0.00,,,0.00,WUHU216HW,2013-07-09 11:32:00,
2013-07-09 05:37:00,51.7,37.7,30.20,North,0,0.0,0.0,59,0.00,,,0.00,WUHU216HW,2013-07-09 11:37:00,
2013-07-09 05:42:00,51.5,37.5,30.20,North,0,0.0,0.0,59,0.00,,,0.00,WUHU216HW,2013-07-09 11:42:00,
2013-07-09 05:47:00,51.3,37.9,30.20,North,0,0.0,0.0,60,0.00,,,0.00,WUHU216HW,2013-07-09 11:47:00,
2013-07-09 05:52:00,51.1,37.7,30.21,North,0,0.0,0.0,60,0.00,,,0.00,WUHU216HW,2013-07-09 11:52:00,
2013-07-09 05:57:00,50.9,37.5,30.21,North,0,0.0,0.0,60,0.00,,,0.00,WUHU216HW,2013-07-09 11:57:00,
2013-07-09 06:02:00,50.8,37.4,30.21,North,0,0.0,0.0,60,0.00,,,0.00,WUHU216HW,2013-07-09 12:02:00,
2013-07-09 06:07:00,50.6,37.6,30.21,North,0,0.0,0.0,61,0.00,,,0.00,WUHU216HW,2013-07-09 12:07:00,
2013-07-09 06:12:00,50.6,37.6,30.21,North,0,0.0,0.0,61,0.00,,,0.00,WUHU216HW,2013-07-09 12:12:00,
2013-07-09 06:17:00,50.8,38.2,30.21,North,0,0.0,0.0,62,0.00,,,0.00,WUHU216HW,2013-07-09 12:17:00,
2013-07-09 06:22:00,50.8,38.2,30.21,North,0,0.0,0.0,62,0.00,,,0.00,WUHU216HW,2013-07-09 12:22:00,
2013-07-09 06:27:00,50.8,38.2,30.22,North,0,0.0,0.0,62,0.00,,,0.00,WUHU216HW,2013-07-09 12:27:00,
2013-07-09 06:32:00,50.8,38.6,30.22,North,0,0.0,0.0,63,0.00,,,0.00,WUHU216HW,2013-07-09 12:32:00,
2013-07-09 06:37:00,51.1,39.3,30.22,North,0,0.0,0.0,64,0.00,,,0.00,WUHU216HW,2013-07-09 12:37:00,
2013-07-09 06:42:00,51.5,39.7,30.22,North,0,0.0,0.0,64,0.00,,,0.00,WUHU216HW,2013-07-09 12:42:00,
2013-07-09 06:47:00,51.7,39.9,30.23,North,0,0.0,0.0,64,0.00,,,0.00,WUHU216HW,2013-07-09 12:47:00,
2013-07-09 06:52:00,52.2,40.3,30.23,North,0,0.0,0.0,64,0.00,,,0.00,WUHU216HW,2013-07-09 12:52:00,
2013-07-09 06:57:00,52.4,40.5,30.23,North,0,0.0,0.0,64,0.00,,,0.00,WUHU216HW,2013-07-09 12:57:00,
2013-07-09 07:02:00,52.6,40.7,30.23,North,0,0.0,0.0,64,0.00,,,0.00,WUHU216HW,2013-07-09 13:02:00,
2013-07-09 07:07:00,52.9,41.1,30.23,North,0,0.0,0.0,64,0.00,,,0.00,WUHU216HW,2013-07-09 13:07:00,
2013-07-09 07:12:00,53.3,41.4,30.23,North,0,0.0,0.0,64,0.00,,,0.00,WUHU216HW,2013-07-09 13:12:00,
2013-07-09 07:17:00,53.6,41.3,30.23,North,0,0.0,0.0,63,0.00,,,0.00,WUHU216HW,2013-07-09 13:17:00,
2013-07-09 07:22:00,54.4,42.4,30.23,North,0,0.0,0.0,64,0.00,,,0.00,WUHU216HW,2013-07-09 13:22:00,
2013-07-09 07:27:00,55.1,43.1,30.23,North,0,0.0,0.0,64,0.00,,,0.00,WUHU216HW,2013-07-09 13:27:00,
2013-07-09 07:32:00,55.6,42.8,30.23,North,0,0.0,0.0,62,0.00,,,0.00,WUHU216HW,2013-07-09 13:32:00,
2013-07-09 07:37:00,56.0,42.8,30.24,North,0,0.0,0.0,61,0.00,,,0.00,WUHU216HW,2013-07-09 13:37:00,
2013-07-09 07:42:00,56.5,43.2,30.24,North,0,0.0,0.0,61,0.00,,,0.00,WUHU216HW,2013-07-09 13:42:00,
2013-07-09 07:47:00,56.9,43.2,30.23,North,0,0.0,0.0,60,0.00,,,0.00,WUHU216HW,2013-07-09 13:47:00,
2013-07-09 07:52:00,57.2,43.6,30.23,North,0,0.0,0.0,60,0.00,,,0.00,WUHU216HW,2013-07-09 13:52:00,
2013-07-09 07:57:00,57.8,43.6,30.24,North,0,0.0,0.0,59,0.00,,,0.00,WUHU216HW,2013-07-09 13:57:00,
2013-07-09 08:02:00,58.0,43.3,30.24,North,0,0.0,0.0,58,0.00,,,0.00,WUHU216HW,2013-07-09 14:02:00,
2013-07-09 08:07:00,58.5,43.7,30.23,North,0,0.0,0.0,58,0.00,,,0.00,WUHU216HW,2013-07-09 14:07:00,
2013-07-09 08:12:00,59.0,44.7,30.23,North,0,0.0,0.0,59,0.00,,,0.00,WUHU216HW,2013-07-09 14:12:00,
2013-07-09 08:17:00,59.6,44.7,30.23,North,0,0.0,0.0,58,0.00,,,0.00,WUHU216HW,2013-07-09 14:17:00,
2013-07-09 08:22:00,60.1,45.3,30.23,North,0,0.0,0.0,58,0.00,,,0.00,WUHU216HW,2013-07-09 14:22:00,
2013-07-09 08:27:00,60.8,45.6,30.23,North,0,0.0,0.0,57,0.00,,,0.00,WUHU216HW,2013-07-09 14:27:00,
2013-07-09 08:32:00,61.4,45.6,30.23,North,0,0.0,0.0,56,0.00,,,0.00,WUHU216HW,2013-07-09 14:32:00,
2013-07-09 08:37:00,61.9,46.0,30.23,North,0,0.0,0.0,56,0.00,,,0.00,WUHU216HW,2013-07-09 14:37:00,
2013-07-09 08:42:00,62.3,45.8,30.23,North,0,0.0,0.0,55,0.00,,,0.00,WUHU216HW,2013-07-09 14:42:00,
2013-07-09 08:47:00,62.8,46.4,30.23,North,0,0.0,0.0,55,0.00,,,0.00,WUHU216HW,2013-07-09 14:47:00,
2013-07-09 08:52:00,63.4,46.8,30.23,North,0,0.0,0.0,55,0.00,,,0.00,WUHU216HW,2013-07-09 14:52:00,
2013-07-09 08:57:00,63.9,46.8,30.23,North,0,0.0,0.0,54,0.00,,,0.00,WUHU216HW,2013-07-09 14:57:00,
2013-07-09 09:02:00,64.6,47.0,30.23,North,0,0.0,0.0,53,0.00,,,0.00,WUHU216HW,2013-07-09 15:02:00,
2013-07-09 09:07:00,65.2,47.5,30.23,North,0,0.0,0.0,53,0.00,,,0.00,WUHU216HW,2013-07-09 15:07:00,
2013-07-09 09:12:00,65.9,47.8,30.23,North,0,0.0,0.0,52,0.00,,,0.00,WUHU216HW,2013-07-09 15:12:00,
2013-07-09 09:17:00,66.2,47.6,30.23,North,0,0.0,0.0,51,0.00,,,0.00,WUHU216HW,2013-07-09 15:17:00,
2013-07-09 09:22:00,66.6,47.5,30.23,North,0,0.0,0.0,50,0.00,,,0.00,WUHU216HW,2013-07-09 15:22:00,
2013-07-09 09:27:00,67.1,47.3,30.23,North,0,0.0,0.0,49,0.00,,,0.00,WUHU216HW,2013-07-09 15:27:00,
2013-07-09 09:32:00,67.7,47.3,30.23,North,0,0.0,0.0,48,0.00,,,0.00,WUHU216HW,2013-07-09 15:32:00,
2013-07-09 09:37:00,68.4,47.4,30.23,North,0,0.0,0.0,47,0.00,,,0.00,WUHU216HW,2013-07-09 15:37:00,
2013-07-09 09:42:00,68.8,47.6,30.23,North,0,0.0,0.0,47,0.00,,,0.00,WUHU216HW,2013-07-09 15:42:00,
2013-07-09 09:47:00,69.8,48.6,30.23,North,0,0.0,0.0,47,0.00,,,0.00,WUHU216HW,2013-07-09 15:47:00,
2013-07-09 09:52:00,70.6,48.1,30.23,North,0,0.0,0.0,45,0.00,,,0.00,WUHU216HW,2013-07-09 15:52:00,
2013-07-09 09:57:00,70.7,47.6,30.23,North,0,0.0,0.0,44,0.00,,,0.00,WUHU216HW,2013-07-09 15:57:00,
2013-07-09 10:02:00,71.3,47.5,30.23,North,0,0.0,0.0,43,0.00,,,0.00,WUHU216HW,2013-07-09 16:02:00,
2013-07-09 10:07:00,71.6,46.1,30.23,North,0,0.0,0.0,40,0.00,,,0.00,WUHU216HW,2013-07-09 16:07:00,
2013-07-09 10:12:00,71.3,43.6,30.23,North,0,0.0,0.0,37,0.00,,,0.00,WUHU216HW,2013-07-09 16:12:00,
2013-07-09 10:17:00,71.5,43.8,30.23,North,0,0.0,0.0,37,0.00,,,0.00,WUHU216HW,2013-07-09 16:17:00,
2013-07-09 10:22:00,71.6,44.7,30.23,North,0,0.0,0.0,38,0.00,,,0.00,WUHU216HW,2013-07-09 16:22:00,
2013-07-09 10:27:00,72.4,44.5,30.23,North,0,0.0,0.0,37,0.00,,,0.00,WUHU216HW,2013-07-09 16:27:00,
2013-07-09 10:32:00,72.7,44.8,30.23,North,0,0.0,0.0,37,0.00,,,0.00,WUHU216HW,2013-07-09 16:32:00,
2013-07-09 10:37:00,72.9,43.5,30.23,North,0,0.0,0.0,35,0.00,,,0.00,WUHU216HW,2013-07-09 16:37:00,
2013-07-09 10:42:00,73.1,45.1,30.23,North,0,0.0,0.0,37,0.00,,,0.00,WUHU216HW,2013-07-09 16:42:00,
2013-07-09 10:47:00,73.4,43.2,30.23,North,0,0.0,0.0,34,0.00,,,0.00,WUHU216HW,2013-07-09 16:47:00,
2013-07-09 10:52:00,73.6,44.1,30.23,North,0,0.0,0.0,35,0.00,,,0.00,WUHU216HW,2013-07-09 16:52:00,
2013-07-09 10:57:00,74.2,43.8,30.23,North,0,0.0,0.0,34,0.00,,,0.00,WUHU216HW,2013-07-09 16:57:00,
2013-07-09 11:02:00,74.5,44.1,30.23,North,0,0.0,0.0,34,0.00,,,0.00,WUHU216HW,2013-07-09 17:02:00,
2013-07-09 11:07:00,75.2,44.8,30.23,North,0,0.0,0.0,34,0.00,,,0.00,WUHU216HW,2013-07-09 17:07:00,
2013-07-09 11:12:00,76.0,44.6,30.23,North,0,0.0,0.0,33,0.00,,,0.00,WUHU216HW,2013-07-09 17:12:00,
2013-07-09 11:17:00,76.3,44.3,30.23,North,0,0.0,0.0,32,0.00,,,0.00,WUHU216HW,2013-07-09 17:17:00,
2013-07-09 11:22:00,76.7,44.6,30.23,North,0,0.0,0.0,32,0.00,,,0.00,WUHU216HW,2013-07-09 17:22:00,
2013-07-09 11:27:00,77.4,44.5,30.23,North,0,0.0,0.0,31,0.00,,,0.00,WUHU216HW,2013-07-09 17:27:00,
2013-07-09 11:32:00,77.8,44.7,30.23,North,0,0.0,0.0,31,0.00,,,0.00,WUHU216HW,2013-07-09 17:32:00,
2013-07-09 11:37:00,78.1,45.0,30.23,North,0,0.0,0.0,31,0.00,,,0.00,WUHU216HW,2013-07-09 17:37:00,
2013-07-09 11:42:00,78.1,45.0,30.23,North,0,0.0,0.0,31,0.00,,,0.00,WUHU216HW,2013-07-09 17:42:00,
2013-07-09 11:47:00,77.9,44.8,30.23,North,0,0.0,0.0,31,0.00,,,0.00,WUHU216HW,2013-07-09 17:47:00,
2013-07-09 11:52:00,77.6,41.8,30.23,North,0,0.0,0.0,28,0.00,,,0.00,WUHU216HW,2013-07-09 17:52:00,
2013-07-09 11:57:00,77.0,42.3,30.23,North,0,0.0,0.0,29,0.00,,,0.00,WUHU216HW,2013-07-09 17:57:00,
2013-07-09 12:02:00,77.6,44.6,30.23,North,0,0.0,0.0,31,0.00,,,0.00,WUHU216HW,2013-07-09 18:02:00,
2013-07-09 12:07:00,78.3,44.4,30.23,North,0,0.0,0.0,30,0.00,,,0.00,WUHU216HW,2013-07-09 18:07:00,
2013-07-09 12:12:00,78.8,43.7,30.23,North,0,0.0,0.0,29,0.00,,,0.00,WUHU216HW,2013-07-09 18:12:00,
2013-07-09 12:17:00,79.0,43.9,30.23,North,0,0.0,0.0,29,0.00,,,0.00,WUHU216HW,2013-07-09 18:17:00,
2013-07-09 12:22:00,78.7,42.6,30.23,North,0,0.0,0.0,28,0.00,,,0.00,WUHU216HW,2013-07-09 18:22:00,
2013-07-09 12:27:00,78.7,42.6,30.22,North,0,0.0,0.0,28,0.00,,,0.00,WUHU216HW,2013-07-09 18:27:00,
2013-07-09 12:32:00,78.8,43.7,30.22,North,0,0.0,0.0,29,0.00,,,0.00,WUHU216HW,2013-07-09 18:32:00,
2013-07-09 12:37:00,78.8,42.8,30.22,North,0,0.0,0.0,28,0.00,,,0.00,WUHU216HW,2013-07-09 18:37:00,
2013-07-09 12:42:00,79.0,42.9,30.22,North,0,0.0,0.0,28,0.00,,,0.00,WUHU216HW,2013-07-09 18:42:00,
2013-07-09 12:47:00,79.2,41.0,30.22,North,0,0.0,0.0,26,0.00,,,0.00,WUHU216HW,2013-07-09 18:47:00,
2013-07-09 12:52:00,79.6,41.3,30.21,North,0,0.0,0.0,26,0.00,,,0.00,WUHU216HW,2013-07-09 18:52:00,
2013-07-09 12:57:00,79.9,41.6,30.21,North,0,0.0,0.0,26,0.00,,,0.00,WUHU216HW,2013-07-09 18:57:00,
2013-07-09 13:02:00,80.1,41.8,30.21,North,0,0.0,0.0,26,0.00,,,0.00,WUHU216HW,2013-07-09 19:02:00,
2013-07-09 13:07:00,80.3,41.9,30.20,North,0,0.0,0.0,26,0.00,,,0.00,WUHU216HW,2013-07-09 19:07:00,
2013-07-09 13:12:00,80.6,41.2,30.21,North,0,0.0,0.0,25,0.00,,,0.00,WUHU216HW,2013-07-09 19:12:00,
2013-07-09 13:17:00,80.6,41.2,30.20,North,0,0.0,0.0,25,0.00,,,0.00,WUHU216HW,2013-07-09 19:17:00,
2013-07-09 13:22:00,81.0,41.5,30.20,North,0,0.0,0.0,25,0.00,,,0.00,WUHU216HW,2013-07-09 19:22:00,
2013-07-09 13:27:00,81.2,40.6,30.20,North,0,0.0,0.0,24,0.00,,,0.00,WUHU216HW,2013-07-09 19:27:00,
2013-07-09 13:32:00,81.7,43.1,30.20,North,0,0.0,0.0,26,0.00,,,0.00,WUHU216HW,2013-07-09 19:32:00,
2013-07-09 13:37:00,82.6,42.9,30.20,North,0,0.0,0.0,25,0.00,,,0.00,WUHU216HW,2013-07-09 19:37:00,
2013-07-09 13:42:00,83.5,41.5,30.20,North,0,0.0,0.0,23,0.00,,,0.00,WUHU216HW,2013-07-09 19:42:00,
2013-07-09 13:47:00,84.6,42.4,30.20,North,0,0.0,0.0,23,0.00,,,0.00,WUHU216HW,2013-07-09 19:47:00,
2013-07-09 13:52:00,85.1,41.8,30.20,North,0,0.0,0.0,22,0.00,,,0.00,WUHU216HW,2013-07-09 19:52:00,
2013-07-09 13:57:00,85.3,41.9,30.20,North,0,0.0,0.0,22,0.00,,,0.00,WUHU216HW,2013-07-09 19:57:00,
2013-07-09 14:02:00,85.3,41.9,30.19,North,0,0.0,0.0,22,0.00,,,0.00,WUHU216HW,2013-07-09 20:02:00,
2013-07-09 14:07:00,85.7,42.2,30.19,North,0,0.0,0.0,22,0.00,,,0.00,WUHU216HW,2013-07-09 20:07:00,
2013-07-09 14:12:00,86.2,41.6,30.19,North,0,0.0,0.0,21,0.00,,,0.00,WUHU216HW,2013-07-09 20:12:00,
2013-07-09 14:17:00,86.6,41.9,30.19,North,0,0.0,0.0,21,0.00,,,0.00,WUHU216HW,2013-07-09 20:17:00,
2013-07-09 14:22:00,86.8,39.2,30.18,North,0,0.0,0.0,19,0.00,,,0.00,WUHU216HW,2013-07-09 20:22:00,
2013-07-09 14:27:00,86.4,39.0,30.19,North,0,0.0,0.0,19,0.00,,,0.00,WUHU216HW,2013-07-09 20:27:00,
2013-07-09 14:32:00,86.8,41.0,30.18,North,0,0.0,0.0,20,0.00,,,0.00,WUHU216HW,2013-07-09 20:32:00,
2013-07-09 14:37:00,86.9,37.7,30.18,North,0,0.0,0.0,18,0.00,,,0.00,WUHU216HW,2013-07-09 20:37:00,
2013-07-09 14:42:00,86.8,37.5,30.18,North,0,0.0,0.0,18,0.00,,,0.00,WUHU216HW,2013-07-09 20:42:00,
2013-07-09 14:47:00,86.6,37.4,30.18,North,0,0.0,0.0,18,0.00,,,0.00,WUHU216HW,2013-07-09 20:47:00,
2013-07-09 14:52:00,87.3,39.7,30.18,North,0,0.0,0.0,19,0.00,,,0.00,WUHU216HW,2013-07-09 20:52:00,
2013-07-09 14:57:00,88.0,38.6,30.18,North,0,0.0,0.0,18,0.00,,,0.00,WUHU216HW,2013-07-09 20:57:00,
2013-07-09 15:02:00,88.2,40.5,30.18,North,0,0.0,0.0,19,0.00,,,0.00,WUHU216HW,2013-07-09 21:02:00,
2013-07-09 15:07:00,88.6,40.8,30.18,North,0,0.0,0.0,19,0.00,,,0.00,WUHU216HW,2013-07-09 21:07:00,
2013-07-09 15:12:00,88.6,40.8,30.18,North,0,0.0,0.0,19,0.00,,,0.00,WUHU216HW,2013-07-09 21:12:00,
2013-07-09 15:17:00,88.6,39.1,30.17,North,0,0.0,0.0,18,0.00,,,0.00,WUHU216HW,2013-07-09 21:17:00,
2013-07-09 15:22:00,87.3,36.3,30.17,North,0,0.0,0.0,17,0.00,,,0.00,WUHU216HW,2013-07-09 21:22:00,
2013-07-09 15:27:00,86.8,34.1,30.17,North,0,0.0,0.0,16,0.00,,,0.00,WUHU216HW,2013-07-09 21:27:00,
2013-07-09 15:32:00,86.4,33.8,30.17,North,0,0.0,0.0,16,0.00,,,0.00,WUHU216HW,2013-07-09 21:32:00,
2013-07-09 15:37:00,86.0,35.2,30.17,North,0,0.0,0.0,17,0.00,,,0.00,WUHU216HW,2013-07-09 21:37:00,
2013-07-09 15:42:00,86.0,35.2,30.17,North,0,0.0,0.0,17,0.00,,,0.00,WUHU216HW,2013-07-09 21:42:00,
2013-07-09 15:47:00,86.0,35.2,30.16,North,0,0.0,0.0,17,0.00,,,0.00,WUHU216HW,2013-07-09 21:47:00,
2013-07-09 15:52:00,86.4,33.8,30.16,North,0,0.0,0.0,16,0.00,,,0.00,WUHU216HW,2013-07-09 21:52:00,
2013-07-09 15:57:00,86.8,35.8,30.16,North,0,0.0,0.0,17,0.00,,,0.00,WUHU216HW,2013-07-09 21:57:00,
2013-07-09 16:02:00,86.9,36.0,30.16,North,0,0.0,0.0,17,0.00,,,0.00,WUHU216HW,2013-07-09 22:02:00,
2013-07-09 16:07:00,88.0,38.6,30.16,North,0,0.0,0.0,18,0.00,,,0.00,WUHU216HW,2013-07-09 22:07:00,
2013-07-09 16:12:00,89.1,41.2,30.15,North,0,0.0,0.0,19,0.00,,,0.00,WUHU216HW,2013-07-09 22:12:00,
2013-07-09 16:17:00,90.4,38.7,30.15,North,0,0.0,0.0,17,0.00,,,0.00,WUHU216HW,2013-07-09 22:17:00,
2013-07-09 16:22:00,90.7,39.0,30.15,North,0,0.0,0.0,17,0.00,,,0.00,WUHU216HW,2013-07-09 22:22:00,
2013-07-09 16:27:00,90.7,39.0,30.15,North,0,0.0,0.0,17,0.00,,,0.00,WUHU216HW,2013-07-09 22:27:00,
2013-07-09 16:32:00,91.1,37.5,30.15,North,0,0.0,0.0,16,0.00,,,0.00,WUHU216HW,2013-07-09 22:32:00,
2013-07-09 16:37:00,91.6,39.7,30.15,North,0,0.0,0.0,17,0.00,,,0.00,WUHU216HW,2013-07-09 22:37:00,
2013-07-09 16:42:00,92.5,38.7,30.15,North,0,0.0,0.0,16,0.00,,,0.00,WUHU216HW,2013-07-09 22:42:00,
2013-07-09 16:47:00,93.6,37.7,30.14,North,0,0.0,0.0,15,0.00,,,0.00,WUHU216HW,2013-07-09 22:47:00,
2013-07-09 16:52:00,94.7,33.3,30.15,North,0,0.0,0.0,12,0.00,,,0.00,WUHU216HW,2013-07-09 22:52:00,
2013-07-09 16:57:00,94.3,34.7,30.14,North,0,0.0,0.0,13,0.00,,,0.00,WUHU216HW,2013-07-09 22:57:00,
2013-07-09 17:02:00,95.4,35.7,30.14,North,0,0.0,0.0,13,0.00,,,0.00,WUHU216HW,2013-07-09 23:02:00,
2013-07-09 17:07:00,97.2,35.2,30.14,North,0,0.0,0.0,12,0.00,,,0.00,WUHU216HW,2013-07-09 23:07:00,
2013-07-09 17:12:00,95.8,32.3,30.14,North,0,0.0,0.0,11,0.00,,,0.00,WUHU216HW,2013-07-09 23:12:00,
2013-07-09 17:17:00,95.8,35.9,30.14,North,0,0.0,0.0,13,0.00,,,0.00,WUHU216HW,2013-07-09 23:17:00,
2013-07-09 17:22:00,96.7,34.8,30.14,North,0,0.0,0.0,12,0.00,,,0.00,WUHU216HW,2013-07-09 23:22:00,
2013-07-09 17:27:00,97.6,37.3,30.13,North,0,0.0,0.0,13,0.00,,,0.00,WUHU216HW,2013-07-09 23:27:00,
2013-07-09 17:32:00,99.7,40.9,30.13,North,0,0.0,0.0,14,0.00,,,0.00,WUHU216HW,2013-07-09 23:32:00,
2013-07-09 17:37:00,101.7,42.3,30.13,North,0,0.0,0.0,14,0.00,,,0.00,WUHU216HW,2013-07-09 23:37:00,
2013-07-09 17:42:00,102.6,35.7,30.13,North,0,0.0,0.0,10,0.00,,,0.00,WUHU216HW,2013-07-09 23:42:00,
2013-07-09 17:47:00,99.2,33.2,30.13,North,0,0.0,0.0,10,0.00,,,0.00,WUHU216HW,2013-07-09 23:47:00,
2013-07-09 17:52:00,97.9,34.0,30.13,North,0,0.0,0.0,11,0.00,,,0.00,WUHU216HW,2013-07-09 23:52:00,
2013-07-09 17:57:00,97.7,33.8,30.12,North,0,0.0,0.0,11,0.00,,,0.00,WUHU216HW,2013-07-09 23:57:00,
2013-07-09 18:02:00,96.8,33.1,30.12,North,0,0.0,0.0,11,0.00,,,0.00,WUHU216HW,2013-07-10 00:02:00,
2013-07-09 18:07:00,94.9,33.5,30.12,North,0,0.0,0.0,12,0.00,,,0.00,WUHU216HW,2013-07-10 00:07:00,
2013-07-09 18:12:00,95.2,33.8,30.12,North,0,0.0,0.0,12,0.00,,,0.00,WUHU216HW,2013-07-10 00:12:00,
2013-07-09 18:17:00,96.3,34.6,30.12,North,0,0.0,0.0,12,0.00,,,0.00,WUHU216HW,2013-07-10 00:17:00,
2013-07-09 18:22:00,96.7,34.8,30.12,North,0,0.0,0.0,12,0.00,,,0.00,WUHU216HW,2013-07-10 00:22:00,
2013-07-09 18:27:00,95.4,35.7,30.12,North,0,0.0,0.0,13,0.00,,,0.00,WUHU216HW,2013-07-10 00:27:00,
2013-07-09 18:32:00,94.5,34.9,30.12,North,0,0.0,0.0,13,0.00,,,0.00,WUHU216HW,2013-07-10 00:32:00,
2013-07-09 18:37:00,94.0,34.5,30.12,North,0,0.0,0.0,13,0.00,,,0.00,WUHU216HW,2013-07-10 00:37:00,
2013-07-09 18:42:00,93.2,37.4,30.12,North,0,0.0,0.0,15,0.00,,,0.00,WUHU216HW,2013-07-10 00:42:00,
2013-07-09 18:47:00,93.1,37.3,30.12,North,0,0.0,0.0,15,0.00,,,0.00,WUHU216HW,2013-07-10 00:47:00,
2013-07-09 18:52:00,92.5,38.7,30.12,North,0,0.0,0.0,16,0.00,,,0.00,WUHU216HW,2013-07-10 00:52:00,
2013-07-09 18:57:00,92.2,38.3,30.11,North,0,0.0,0.0,16,0.00,,,0.00,WUHU216HW,2013-07-10 00:57:00,
2013-07-09 19:02:00,92.2,38.3,30.11,North,0,0.0,0.0,16,0.00,,,0.00,WUHU216HW,2013-07-10 01:02:00,
2013-07-09 19:07:00,92.0,38.3,30.11,North,0,0.0,0.0,16,0.00,,,0.00,WUHU216HW,2013-07-10 01:07:00,
2013-07-09 19:12:00,91.1,39.3,30.11,North,0,0.0,0.0,17,0.00,,,0.00,WUHU216HW,2013-07-10 01:12:00,
2013-07-09 19:17:00,90.7,39.0,30.11,North,0,0.0,0.0,17,0.00,,,0.00,WUHU216HW,2013-07-10 01:17:00,
2013-07-09 19:22:00,90.4,38.7,30.11,North,0,0.0,0.0,17,0.00,,,0.00,WUHU216HW,2013-07-10 01:22:00,
2013-07-09 19:28:00,90.4,38.7,30.11,North,0,0.0,0.0,17,0.00,,,0.00,WUHU216HW,2013-07-10 01:28:00,
2013-07-09 19:33:00,90.2,38.6,30.11,North,0,0.0,0.0,17,0.00,,,0.00,WUHU216HW,2013-07-10 01:33:00,
2013-07-09 19:38:00,89.6,38.2,30.11,North,0,0.0,0.0,17,0.00,,,0.00,WUHU216HW,2013-07-10 01:38:00,
2013-07-09 19:43:00,89.3,39.6,30.11,North,0,0.0,0.0,18,0.00,,,0.00,WUHU216HW,2013-07-10 01:43:00,
2013-07-09 19:48:00,88.6,37.4,30.11,North,0,0.0,0.0,17,0.00,,,0.00,WUHU216HW,2013-07-10 01:48:00,
2013-07-09 19:53:00,88.6,39.1,30.11,North,0,0.0,0.0,18,0.00,,,0.00,WUHU216HW,2013-07-10 01:53:00,
2013-07-09 19:58:00,88.2,38.8,30.11,North,0,0.0,0.0,18,0.00,,,0.00,WUHU216HW,2013-07-10 01:58:00,
2013-07-09 20:03:00,86.8,37.5,30.11,North,0,0.0,0.0,18,0.00,,,0.00,WUHU216HW,2013-07-10 02:03:00,
2013-07-09 20:08:00,85.7,38.4,30.11,North,0,0.0,0.0,19,0.00,,,0.00,WUHU216HW,2013-07-10 02:08:00,
2013-07-09 20:13:00,84.8,37.6,30.11,North,0,0.0,0.0,19,0.00,,,0.00,WUHU216HW,2013-07-10 02:13:00,
2013-07-09 20:18:00,84.4,37.4,30.11,North,0,0.0,0.0,19,0.00,,,0.00,WUHU216HW,2013-07-10 02:18:00,
2013-07-09 20:23:00,83.9,36.9,30.11,North,0,0.0,0.0,19,0.00,,,0.00,WUHU216HW,2013-07-10 02:23:00,
2013-07-09 20:28:00,83.5,36.6,30.11,North,0,0.0,0.0,19,0.00,,,0.00,WUHU216HW,2013-07-10 02:28:00,
2013-07-09 20:33:00,83.2,36.4,30.12,North,0,0.0,0.0,19,0.00,,,0.00,WUHU216HW,2013-07-10 02:33:00,
2013-07-09 20:38:00,82.8,34.4,30.11,North,0,0.0,0.0,18,0.00,,,0.00,WUHU216HW,2013-07-10 02:38:00,
2013-07-09 20:43:00,82.4,34.0,30.12,North,0,0.0,0.0,18,0.00,,,0.00,WUHU216HW,2013-07-10 02:43:00,
2013-07-09 20:48:00,82.4,34.0,30.12,North,0,0.0,0.0,18,0.00,,,0.00,WUHU216HW,2013-07-10 02:48:00,
2013-07-09 20:53:00,82.1,33.8,30.12,North,0,0.0,0.0,18,0.00,,,0.00,WUHU216HW,2013-07-10 02:53:00,
2013-07-09 20:58:00,81.7,33.5,30.12,North,0,0.0,0.0,18,0.00,,,0.00,WUHU216HW,2013-07-10 02:58:00,
2013-07-09 21:03:00,81.4,33.2,30.12,North,0,0.0,0.0,18,0.00,,,0.00,WUHU216HW,2013-07-10 03:03:00,
2013-07-09 21:08:00,81.0,33.0,30.12,North,0,0.0,0.0,18,0.00,,,0.00,WUHU216HW,2013-07-10 03:08:00,
2013-07-09 21:13:00,80.5,32.5,30.12,North,0,0.0,0.0,18,0.00,,,0.00,WUHU216HW,2013-07-10 03:13:00,
2013-07-09 21:18:00,79.9,32.0,30.12,North,0,0.0,0.0,18,0.00,,,0.00,WUHU216HW,2013-07-10 03:18:00,
2013-07-09 21:23:00,79.6,33.4,30.12,North,0,0.0,0.0,19,0.00,,,0.00,WUHU216HW,2013-07-10 03:23:00,
2013-07-09 21:28:00,78.7,32.6,30.12,North,0,0.0,0.0,19,0.00,,,0.00,WUHU216HW,2013-07-10 03:28:00,
2013-07-09 21:33:00,77.9,33.7,30.12,North,0,0.0,0.0,20,0.00,,,0.00,WUHU216HW,2013-07-10 03:33:00,
2013-07-09 21:38:00,76.7,33.7,30.13,North,0,0.0,0.0,21,0.00,,,0.00,WUHU216HW,2013-07-10 03:38:00,
2013-07-09 21:43:00,75.6,33.8,30.13,North,0,0.0,0.0,22,0.00,,,0.00,WUHU216HW,2013-07-10 03:43:00,
2013-07-09 21:48:00,74.5,32.9,30.13,North,0,0.0,0.0,22,0.00,,,0.00,WUHU216HW,2013-07-10 03:48:00,
2013-07-09 21:53:00,73.4,33.1,30.13,North,0,0.0,0.0,23,0.00,,,0.00,WUHU216HW,2013-07-10 03:53:00,
2013-07-09 21:58:00,72.5,33.3,30.13,North,0,0.0,0.0,24,0.00,,,0.00,WUHU216HW,2013-07-10 03:58:00,
2013-07-09 22:01:00,72.0,33.8,30.14,North,0,0.0,0.0,25,0.00,,,0.00,WUHU216HW,2013-07-10 04:01:00,
2013-07-09 22:06:00,71.6,33.6,30.14,North,0,0.0,0.0,25,0.00,,,0.00,WUHU216HW,2013-07-10 04:06:00,
2013-07-09 22:11:00,71.3,34.3,30.14,North,0,0.0,0.0,26,0.00,,,0.00,WUHU216HW,2013-07-10 04:11:00,
2013-07-09 22:16:00,70.9,34.0,30.14,North,0,0.0,0.0,26,0.00,,,0.00,WUHU216HW,2013-07-10 04:16:00,
2013-07-09 22:21:00,70.4,34.6,30.14,North,0,0.0,0.0,27,0.00,,,0.00,WUHU216HW,2013-07-10 04:21:00,
2013-07-09 22:26:00,69.8,35.1,30.14,North,0,0.0,0.0,28,0.00,,,0.00,WUHU216HW,2013-07-10 04:26:00,
2013-07-09 22:31:00,69.7,35.9,30.14,North,0,0.0,0.0,29,0.00,,,0.00,WUHU216HW,2013-07-10 04:31:00,
2013-07-09 22:36:00,69.1,35.5,30.14,North,0,0.0,0.0,29,0.00,,,0.00,WUHU216HW,2013-07-10 04:36:00,
2013-07-09 22:41:00,68.8,35.1,30.14,North,0,0.0,0.0,29,0.00,,,0.00,WUHU216HW,2013-07-10 04:41:00,
2013-07-09 22:46:00,68.4,34.8,30.14,North,0,0.0,0.0,29,0.00,,,0.00,WUHU216HW,2013-07-10 04:46:00,
2013-07-09 22:51:00,68.0,35.5,30.14,North,0,0.0,0.0,30,0.00,,,0.00,WUHU216HW,2013-07-10 04:51:00,
2013-07-09 22:56:00,67.7,35.9,30.14,North,0,0.0,0.0,31,0.00,,,0.00,WUHU216HW,2013-07-10 04:56:00,
2013-07-09 23:01:00,67.9,35.3,30.14,North,0,0.0,0.0,30,0.00,,,0.00,WUHU216HW,2013-07-10 05:01:00,
2013-07-09 23:06:00,67.9,35.3,30.14,North,0,0.0,0.0,30,0.00,,,0.00,WUHU216HW,2013-07-10 05:06:00,
2013-07-09 23:11:00,67.1,34.7,30.14,North,0,0.0,0.0,30,0.00,,,0.00,WUHU216HW,2013-07-10 05:11:00,
2013-07-09 23:16:00,66.4,34.2,30.14,North,0,0.0,0.0,30,0.00,,,0.00,WUHU216HW,2013-07-10 05:16:00,
2013-07-09 23:21:00,65.7,33.6,30.14,North,0,0.0,0.0,30,0.00,,,0.00,WUHU216HW,2013-07-10 05:21:00,
2013-07-09 23:26:00,65.0,33.6,30.14,North,0,0.0,0.0,31,0.00,,,0.00,WUHU216HW,2013-07-10 05:26:00,
2013-07-09 23:31:00,64.4,33.1,30.14,North,0,0.0,0.0,31,0.00,,,0.00,WUHU216HW,2013-07-10 05:31:00,
2013-07-09 23:36:00,63.9,33.4,30.14,North,0,0.0,0.0,32,0.00,,,0.00,WUHU216HW,2013-07-10 05:36:00,
2013-07-09 23:41:00,63.7,33.9,30.14,North,0,0.0,0.0,33,0.00,,,0.00,WUHU216HW,2013-07-10 05:41:00,
2013-07-09 23:46:00,63.5,33.8,30.14,North,0,0.0,0.0,33,0.00,,,0.00,WUHU216HW,2013-07-10 05:46:00,
2013-07-09 23:51:00,63.2,33.4,30.15,North,0,0.0,0.0,33,0.00,,,0.00,WUHU216HW,2013-07-10 05:51:00,
2013-07-09 23:56:00,62.8,33.9,30.15,North,0,0.0,0.0,34,0.00,,,0.00,WUHU216HW,2013-07-10 05:56:00,